createdAt,value
2022-10-17T00:00:53.007Z,4.80
2022-10-17T00:03:19.435Z,5.07
2022-10-17T00:05:47.724Z,5.65
2022-10-17T00:08:16.454Z,4.50
2022-10-17T00:10:42.964Z,9.60
2022-10-17T00:13:09.932Z,5.33
2022-10-17T00:15:36.368Z,6.70
2022-10-17T00:18:02.964Z,8.48
2022-10-17T00:20:30.396Z,7.50
2022-10-17T00:22:57.372Z,5.40
2022-10-17T00:25:23.875Z,4.83
2022-10-17T00:27:50.260Z,6.00
2022-10-17T00:30:17.119Z,8.68
2022-10-17T00:32:43.620Z,7.30
2022-10-17T00:35:10.314Z,7.22
2022-10-17T00:37:36.983Z,6.03
2022-10-17T00:40:05.530Z,10.65
2022-10-17T00:42:31.929Z,4.93
2022-10-17T00:45:21.698Z,4.65
2022-10-17T00:48:01.024Z,5.47
2022-10-17T00:50:28.193Z,4.30
2022-10-17T00:52:59.175Z,8.43
2022-10-17T00:55:30.904Z,6.18
2022-10-17T00:58:00.888Z,5.82
2022-10-17T01:00:27.355Z,9.60
2022-10-17T01:02:53.864Z,5.23
2022-10-17T01:05:20.781Z,5.30
2022-10-17T01:07:49.441Z,10.75
2022-10-17T01:10:16.080Z,4.18
2022-10-17T01:12:49.166Z,6.25
2022-10-17T01:15:32.080Z,6.47
2022-10-17T01:18:40.188Z,5.75
2022-10-17T01:21:27.859Z,6.03
2022-10-17T01:24:35.766Z,4.03
2022-10-17T01:27:42.243Z,5.32
2022-10-17T01:30:26.990Z,6.37
2022-10-17T01:33:07.375Z,5.95
2022-10-17T01:35:46.977Z,6.85
2022-10-17T01:38:27.224Z,7.70
2022-10-17T01:41:10.445Z,5.60
2022-10-17T01:43:46.489Z,4.03
2022-10-17T01:46:36.160Z,5.03
2022-10-17T01:49:05.711Z,4.45
2022-10-17T01:51:49.159Z,7.63
2022-10-17T01:54:27.416Z,4.25
2022-10-17T01:56:58.624Z,5.70
2022-10-17T01:59:44.214Z,7.72
2022-10-17T02:02:14.287Z,8.38
2022-10-17T02:04:41.851Z,5.15
2022-10-17T02:07:10.322Z,5.95
2022-10-17T02:09:36.799Z,6.17
2022-10-17T02:12:31.162Z,10.52
2022-10-17T02:15:29.756Z,5.88
2022-10-17T02:18:29.756Z,4.68
2022-10-17T02:21:03.656Z,7.75
2022-10-17T02:23:50.690Z,7.43
2022-10-17T02:26:33.024Z,8.25
2022-10-17T02:29:15.516Z,8.85
2022-10-17T02:31:46.880Z,5.32
2022-10-17T02:34:19.711Z,7.55
2022-10-17T02:36:51.570Z,8.43
2022-10-17T02:39:20.816Z,8.05
2022-10-17T02:41:49.260Z,5.07
2022-10-17T02:44:16.843Z,10.68
2022-10-17T02:46:49.380Z,8.60
2022-10-17T02:49:21.272Z,7.27
2022-10-17T02:51:56.795Z,9.05
2022-10-17T02:54:34.397Z,6.47
2022-10-17T02:57:26.217Z,6.97
2022-10-17T02:59:53.458Z,5.90
2022-10-17T03:02:19.886Z,7.97
2022-10-17T03:04:46.896Z,6.28
2022-10-17T03:07:13.453Z,6.82
2022-10-17T03:09:39.930Z,8.50
2022-10-17T03:12:06.409Z,14.70
2022-10-17T03:14:32.766Z,5.93
2022-10-17T03:16:59.241Z,6.40
2022-10-17T03:19:25.784Z,5.53
2022-10-17T03:21:52.232Z,10.05
2022-10-17T03:24:18.629Z,8.43
2022-10-17T03:29:11.422Z,7.90
2022-10-17T03:31:37.830Z,7.25
2022-10-17T03:34:04.345Z,4.68
2022-10-17T03:36:30.804Z,11.20
2022-10-17T03:38:57.217Z,9.87
2022-10-17T03:41:23.843Z,8.55
2022-10-17T03:43:52.905Z,6.00
2022-10-17T03:46:19.346Z,5.13
2022-10-17T03:48:45.825Z,7.85
2022-10-17T03:51:12.229Z,9.40
2022-10-17T03:53:38.702Z,6.95
2022-10-17T03:56:24.192Z,8.07
2022-10-17T03:58:50.988Z,9.52
2022-10-17T04:01:19.329Z,6.57
2022-10-17T04:03:52.159Z,7.90
2022-10-17T04:06:19.003Z,6.50
2022-10-17T04:08:45.495Z,14.07
2022-10-17T04:11:16.183Z,9.20
2022-10-17T04:13:43.471Z,12.02
2022-10-17T04:16:17.669Z,7.03
2022-10-17T04:18:44.711Z,8.98
2022-10-17T04:21:12.445Z,8.23
2022-10-17T04:23:39.791Z,5.25
2022-10-17T04:26:07.172Z,8.27
2022-10-17T04:28:34.322Z,8.73
2022-10-17T04:31:10.035Z,4.68
2022-10-17T04:33:36.494Z,5.38
2022-10-17T04:36:06.514Z,5.18
2022-10-17T04:38:33.713Z,6.15
2022-10-17T04:41:06.039Z,6.73
2022-10-17T04:43:34.354Z,10.30
2022-10-17T04:46:02.118Z,11.52
2022-10-17T04:48:29.663Z,10.90
2022-10-17T04:50:57.985Z,6.78
2022-10-17T04:53:24.878Z,6.13
2022-10-17T04:55:51.475Z,8.27
2022-10-17T04:58:18.831Z,8.30
2022-10-17T05:00:45.940Z,9.88
2022-10-17T05:03:12.629Z,9.15
2022-10-17T05:05:39.844Z,7.00
2022-10-17T05:08:07.826Z,6.70
2022-10-17T05:10:42.895Z,8.02
2022-10-17T05:13:10.197Z,7.50
2022-10-17T05:15:37.851Z,6.72
2022-10-17T05:18:05.894Z,7.20
2022-10-17T05:20:33.160Z,7.68
2022-10-17T05:23:00.361Z,8.52
2022-10-17T05:25:26.839Z,6.10
2022-10-17T05:27:53.905Z,7.75
2022-10-17T05:30:20.473Z,8.13
2022-10-17T05:32:47.006Z,8.02
2022-10-17T05:35:13.497Z,5.55
2022-10-17T05:37:39.965Z,7.22
2022-10-17T05:40:07.999Z,10.10
2022-10-17T05:42:34.437Z,4.57
2022-10-17T05:45:00.963Z,5.53
2022-10-17T05:47:27.742Z,7.18
2022-10-17T05:49:54.764Z,9.25
2022-10-17T05:52:21.165Z,5.35
2022-10-17T05:54:47.609Z,5.60
2022-10-17T05:57:14.022Z,8.32
2022-10-17T05:59:40.589Z,4.35
2022-10-17T06:02:07.026Z,7.05
2022-10-17T06:04:33.723Z,4.50
2022-10-17T06:07:00.202Z,10.03
2022-10-17T06:09:26.620Z,6.80
2022-10-17T06:11:53.127Z,9.48
2022-10-17T06:14:19.671Z,7.65
2022-10-17T06:16:46.085Z,8.60
2022-10-17T06:19:12.715Z,5.43
2022-10-17T06:21:39.086Z,8.75
2022-10-17T06:24:05.619Z,5.13
2022-10-17T06:26:32.058Z,7.97
2022-10-17T06:28:58.562Z,10.75
2022-10-17T06:31:25.207Z,8.30
2022-10-17T06:33:51.637Z,4.53
2022-10-17T06:36:18.177Z,5.90
2022-10-17T06:38:44.599Z,6.38
2022-10-17T06:41:16.328Z,6.43
2022-10-17T06:43:46.311Z,5.30
2022-10-17T06:46:18.091Z,5.72
2022-10-17T06:48:45.187Z,9.77
2022-10-17T06:51:12.360Z,8.38
2022-10-17T06:53:40.051Z,10.70
2022-10-17T06:56:08.305Z,7.67
2022-10-17T06:58:41.192Z,8.93
2022-10-17T07:01:13.202Z,5.38
2022-10-17T07:03:40.884Z,8.93
2022-10-17T07:06:08.051Z,5.72
2022-10-17T07:08:34.469Z,6.73
2022-10-17T07:11:13.270Z,6.43
2022-10-17T07:13:39.632Z,8.70
2022-10-17T07:16:06.732Z,8.00
2022-10-17T07:18:33.256Z,6.80
2022-10-17T07:20:59.730Z,11.03
2022-10-17T07:23:26.493Z,8.10
2022-10-17T07:25:53.606Z,7.40
2022-10-17T07:28:20.008Z,7.50
2022-10-17T07:30:50.627Z,7.18
2022-10-17T07:33:20.167Z,6.27
2022-10-17T07:35:46.619Z,9.15
2022-10-17T07:38:12.957Z,5.90
2022-10-17T07:40:39.407Z,6.68
2022-10-17T07:43:05.820Z,7.25
2022-10-17T07:45:32.263Z,7.40
2022-10-17T07:47:58.808Z,5.00
2022-10-17T07:50:26.088Z,7.53
2022-10-17T07:52:52.631Z,9.82
2022-10-17T07:55:19.177Z,5.03
2022-10-17T07:57:45.730Z,6.60
2022-10-17T08:00:12.741Z,8.27
2022-10-17T08:02:39.549Z,10.02
2022-10-17T08:05:06.457Z,6.63
2022-10-17T08:07:32.940Z,9.82
2022-10-17T08:09:59.592Z,9.00
2022-10-17T08:12:26.346Z,8.15
2022-10-17T08:14:52.760Z,11.23
2022-10-17T08:17:19.307Z,9.93
2022-10-17T08:19:45.812Z,7.82
2022-10-17T08:22:12.448Z,9.03
2022-10-17T08:24:38.990Z,5.93
2022-10-17T08:27:11.212Z,19.73
2022-10-17T08:29:38.664Z,8.88
2022-10-17T08:32:08.969Z,7.82
2022-10-17T08:34:36.499Z,8.60
2022-10-17T08:37:03.214Z,9.48
2022-10-17T08:39:29.794Z,8.00
2022-10-17T08:42:06.523Z,6.63
2022-10-17T08:44:43.686Z,6.05
2022-10-17T08:47:19.201Z,5.70
2022-10-17T08:49:52.410Z,5.30
2022-10-17T08:52:47.250Z,6.03
2022-10-17T08:55:37.862Z,5.25
2022-10-17T08:58:20.965Z,8.80
2022-10-17T09:01:13.071Z,8.07
2022-10-17T09:04:09.382Z,7.40
2022-10-17T09:06:42.378Z,11.98
2022-10-17T09:09:39.723Z,5.82
2022-10-17T09:12:22.121Z,6.80
2022-10-17T09:14:51.267Z,6.57
2022-10-17T09:17:39.036Z,6.03
2022-10-17T09:20:20.551Z,7.25
2022-10-17T09:23:13.170Z,5.70
2022-10-17T09:25:44.461Z,4.45
2022-10-17T09:28:13.843Z,9.10
2022-10-17T09:30:45.819Z,5.95
2022-10-17T09:33:53.396Z,7.93
2022-10-17T09:36:30.120Z,5.28
2022-10-17T09:38:59.690Z,6.55
2022-10-17T09:41:46.920Z,5.77
2022-10-17T09:44:32.666Z,6.88
2022-10-17T09:47:24.361Z,6.18
2022-10-17T09:49:51.334Z,7.55
2022-10-17T09:52:25.400Z,6.70
2022-10-17T09:54:55.650Z,6.80
2022-10-17T09:57:22.157Z,7.43
2022-10-17T10:00:00.471Z,4.30
2022-10-17T10:02:29.444Z,4.53
2022-10-17T10:05:06.367Z,10.02
2022-10-17T10:07:36.413Z,7.70
2022-10-17T10:10:06.435Z,7.15
2022-10-17T10:12:36.436Z,5.32
2022-10-17T10:15:38.690Z,5.70
2022-10-17T10:18:25.051Z,8.30
2022-10-17T10:21:07.137Z,8.30
2022-10-17T10:23:34.431Z,7.22
2022-10-17T10:26:16.779Z,9.00
2022-10-17T10:28:54.927Z,5.43
2022-10-17T10:31:37.385Z,5.22
2022-10-17T10:34:20.724Z,6.23
2022-10-17T10:37:07.615Z,7.68
2022-10-17T10:39:43.054Z,8.10
2022-10-17T10:42:21.587Z,7.40
2022-10-17T10:44:49.419Z,9.82
2022-10-17T10:47:26.218Z,6.43
2022-10-17T10:50:07.971Z,6.65
2022-10-17T10:52:50.273Z,6.40
2022-10-17T10:55:26.093Z,4.00
2022-10-17T10:57:58.741Z,4.18
2022-10-17T11:00:27.899Z,4.43
2022-10-17T11:03:19.482Z,3.95
2022-10-17T11:06:18.961Z,5.72
2022-10-17T11:09:13.277Z,5.38
2022-10-17T11:11:48.170Z,6.88
2022-10-17T11:14:23.567Z,5.03
2022-10-17T11:17:02.171Z,3.50
2022-10-17T11:19:32.295Z,4.18
2022-10-17T11:22:10.851Z,4.05
2022-10-17T11:24:43.248Z,3.53
2022-10-17T11:27:09.848Z,3.20
2022-10-17T11:29:40.272Z,4.03
2022-10-17T11:32:22.887Z,3.70
2022-10-17T11:34:53.471Z,6.38
2022-10-17T11:37:32.913Z,5.07
2022-10-17T11:40:14.661Z,3.43
2022-10-17T11:42:56.881Z,4.47
2022-10-17T11:45:27.048Z,4.97
2022-10-17T11:48:01.670Z,3.88
2022-10-17T11:53:24.700Z,5.60
2022-10-17T11:55:54.197Z,3.33
2022-10-17T11:58:39.472Z,5.13
2022-10-17T12:01:25.565Z,3.47
2022-10-17T12:03:59.331Z,7.95
2022-10-17T12:07:05.567Z,3.70
2022-10-17T12:09:47.798Z,8.50
2022-10-17T12:12:32.499Z,4.88
2022-10-17T12:15:26.076Z,3.55
2022-10-17T12:18:03.406Z,4.82
2022-10-17T12:20:37.207Z,9.67
2022-10-17T12:23:19.257Z,3.83
2022-10-17T12:25:56.985Z,4.45
2022-10-17T12:28:30.800Z,5.15
2022-10-17T12:31:17.226Z,6.07
2022-10-17T12:33:46.510Z,7.23
2022-10-17T12:36:20.960Z,6.03
2022-10-17T12:39:13.539Z,6.50
2022-10-17T12:41:40.165Z,4.25
2022-10-17T12:44:12.869Z,6.65
2022-10-17T12:46:49.466Z,7.77
2022-10-17T12:49:25.935Z,3.85
2022-10-17T12:52:11.003Z,4.90
2022-10-17T12:54:48.087Z,5.13
2022-10-17T12:57:44.875Z,3.95
2022-10-17T13:00:22.061Z,5.13
2022-10-17T13:02:52.182Z,3.95
2022-10-17T13:05:28.453Z,5.53
2022-10-17T13:07:56.385Z,6.25
2022-10-17T13:10:32.455Z,4.10
2022-10-17T13:13:11.016Z,9.70
2022-10-17T13:15:37.419Z,4.05
2022-10-17T13:18:04.107Z,4.78
2022-10-17T13:20:32.349Z,7.15
2022-10-17T13:22:59.241Z,4.88
2022-10-17T13:25:27.248Z,4.30
2022-10-17T13:28:06.357Z,6.13
2022-10-17T13:30:35.306Z,6.18
2022-10-17T13:33:02.969Z,4.40
2022-10-17T13:38:28.267Z,14.87
2022-10-17T13:41:01.670Z,4.88
2022-10-17T13:43:29.390Z,5.40
2022-10-17T13:46:19.231Z,10.88
2022-10-17T13:48:50.525Z,5.13
2022-10-17T13:51:17.038Z,4.47
2022-10-17T13:53:44.430Z,3.72
2022-10-17T13:56:27.725Z,6.05
2022-10-17T13:59:08.145Z,3.83
2022-10-17T14:01:34.840Z,8.48
2022-10-17T14:04:08.827Z,5.87
2022-10-17T14:06:48.003Z,4.90
2022-10-17T14:09:22.435Z,3.35
2022-10-17T14:12:02.618Z,5.88
2022-10-17T14:14:30.451Z,5.82
2022-10-17T14:17:13.382Z,4.50
2022-10-17T14:19:40.026Z,5.60
2022-10-17T14:22:22.050Z,5.95
2022-10-17T14:24:53.326Z,5.32
2022-10-17T14:27:48.499Z,6.45
2022-10-17T14:30:51.805Z,13.97
2022-10-17T14:33:22.214Z,5.38
2022-10-17T14:35:54.066Z,7.95
2022-10-17T14:38:21.624Z,6.60
2022-10-17T14:41:43.810Z,5.15
2022-10-17T14:44:07.125Z,4.73
2022-10-17T14:46:37.650Z,9.43
2022-10-17T14:49:28.598Z,3.63
2022-10-17T14:52:18.540Z,5.35
2022-10-17T14:54:49.367Z,5.13
2022-10-17T14:57:17.565Z,4.90
2022-10-17T14:59:59.390Z,6.22
2022-10-17T15:02:27.893Z,4.97
2022-10-17T15:04:54.888Z,4.10
2022-10-17T15:07:22.191Z,4.10
2022-10-17T15:09:50.633Z,8.03
2022-10-17T15:12:19.728Z,5.65
2022-10-17T15:14:48.400Z,6.45
2022-10-17T15:17:20.498Z,5.90
2022-10-17T15:19:47.782Z,9.32
2022-10-17T15:22:16.005Z,4.90
2022-10-17T15:24:42.929Z,5.93
2022-10-17T15:27:19.927Z,7.93
2022-10-17T15:29:46.936Z,4.30
2022-10-17T15:32:14.121Z,4.05
2022-10-17T15:34:40.901Z,9.23
2022-10-17T15:37:16.252Z,4.13
2022-10-17T15:39:42.733Z,6.20
2022-10-17T15:42:11.879Z,12.38
2022-10-17T15:44:38.349Z,7.32
2022-10-17T15:47:05.237Z,4.97
2022-10-17T15:49:31.615Z,5.38
2022-10-17T15:51:58.068Z,4.00
2022-10-17T15:54:24.417Z,5.90
2022-10-17T15:56:54.808Z,8.65
2022-10-17T15:59:25.729Z,8.33
2022-10-17T16:01:52.214Z,3.38
2022-10-17T17:09:16.047Z,6.00
2022-10-17T17:15:27.798Z,7.03
2022-10-17T17:21:58.691Z,5.32
2022-10-17T17:28:17.144Z,8.07
2022-10-17T17:31:01.281Z,5.00
2022-10-17T17:33:29.869Z,6.80
2022-10-17T19:09:35.280Z,15.03
2022-10-17T19:12:01.982Z,7.57
2022-10-17T19:14:28.660Z,7.32
2022-10-17T19:16:55.090Z,13.43
2022-10-17T19:19:24.261Z,10.13
2022-10-17T19:21:51.696Z,11.18
2022-10-17T19:24:21.327Z,9.53
2022-10-17T19:26:50.328Z,11.48
2022-10-17T19:29:18.126Z,10.52
2022-10-17T19:31:45.178Z,8.25
2022-10-17T19:34:12.483Z,8.32
2022-10-17T19:36:39.177Z,9.43
2022-10-17T19:39:08.555Z,12.90
2022-10-17T19:41:36.330Z,8.23
2022-10-17T19:44:03.236Z,13.55
2022-10-17T19:46:30.707Z,7.88
2022-10-17T19:48:58.077Z,11.10
2022-10-17T19:51:25.072Z,13.60
2022-10-17T19:53:52.850Z,14.52
2022-10-17T19:56:21.129Z,9.38
2022-10-17T19:58:48.659Z,9.38
2022-10-17T20:01:17.723Z,13.87
2022-10-17T20:03:44.441Z,10.77
2022-10-17T20:06:11.357Z,12.68
2022-10-17T20:08:38.692Z,11.00
2022-10-17T20:11:07.072Z,10.27
2022-10-17T20:13:35.336Z,9.27
2022-10-17T20:16:02.463Z,10.95
2022-10-17T20:18:29.003Z,11.45
2022-10-17T20:20:55.536Z,12.88
2022-10-17T20:23:22.477Z,11.15
2022-10-17T20:26:06.809Z,12.77
2022-10-17T20:28:45.887Z,13.18
2022-10-17T20:31:13.366Z,15.55
2022-10-17T20:33:41.439Z,20.17
2022-10-17T20:36:10.160Z,12.27
2022-10-17T20:38:36.823Z,15.10
2022-10-17T20:41:09.556Z,13.30
2022-10-17T20:43:37.216Z,14.38
2022-10-17T20:46:22.030Z,9.10
2022-10-17T20:48:54.460Z,12.70
2022-10-17T20:51:21.376Z,21.77
2022-10-17T20:53:48.819Z,21.10
2022-10-17T20:56:28.957Z,18.55
2022-10-17T20:59:13.126Z,12.60
2022-10-17T21:01:39.643Z,15.38
2022-10-17T21:04:33.261Z,14.17
2022-10-17T21:06:53.660Z,11.48
2022-10-17T21:09:20.703Z,12.30
2022-10-17T21:11:48.299Z,15.15
2022-10-17T21:14:16.654Z,9.27
2022-10-17T21:16:43.316Z,13.00
2022-10-17T21:19:24.793Z,15.40
2022-10-17T21:21:51.352Z,15.40
2022-10-17T21:24:21.269Z,13.70
2022-10-17T21:26:55.427Z,11.93
2022-10-17T21:29:22.853Z,13.60
2022-10-17T21:31:49.555Z,14.77
2022-10-17T21:34:19.976Z,12.02
2022-10-17T21:36:46.750Z,15.73
2022-10-17T21:39:14.381Z,18.17
2022-10-17T21:41:41.635Z,11.70
2022-10-17T21:44:13.636Z,15.77
2022-10-17T21:46:40.578Z,12.63
2022-10-17T21:49:07.289Z,10.40
2022-10-17T21:51:33.673Z,22.20
2022-10-17T21:54:00.329Z,12.27
2022-10-17T21:56:30.476Z,11.63
2022-10-17T21:58:58.288Z,14.07
2022-10-17T22:01:27.691Z,10.80
2022-10-17T22:03:56.860Z,11.80
2022-10-17T22:06:39.764Z,11.63
2022-10-17T22:09:14.404Z,19.30
2022-10-17T22:11:41.361Z,12.15
2022-10-17T22:14:12.418Z,13.73
2022-10-17T22:16:39.407Z,13.70
2022-10-17T22:19:07.920Z,12.07
2022-10-17T22:21:36.170Z,15.32
2022-10-17T22:24:05.891Z,24.02
2022-10-17T22:26:34.678Z,12.10
2022-10-17T22:29:01.692Z,11.05
2022-10-17T22:31:28.100Z,12.35
2022-10-17T22:33:54.540Z,14.80
2022-10-17T22:36:21.158Z,14.68
2022-10-17T22:38:48.391Z,10.63
2022-10-17T22:41:14.754Z,10.43
2022-10-17T22:43:48.238Z,7.65
2022-10-17T22:46:18.531Z,10.25
2022-10-17T22:48:44.947Z,8.50
2022-10-17T22:51:12.294Z,9.80
2022-10-17T22:53:38.761Z,7.45
2022-10-17T22:56:07.968Z,9.57
2022-10-17T22:58:35.592Z,12.63
2022-10-17T23:01:02.973Z,8.95
2022-10-17T23:03:31.611Z,8.87
2022-10-17T23:05:58.713Z,7.78
2022-10-17T23:08:25.984Z,11.00
2022-10-17T23:10:52.895Z,8.18
2022-10-17T23:13:21.239Z,7.32
2022-10-17T23:15:52.552Z,8.00
2022-10-17T23:18:19.974Z,10.32
2022-10-17T23:20:46.475Z,7.47
2022-10-17T23:23:13.336Z,13.73
2022-10-17T23:25:39.919Z,15.45
2022-10-17T23:28:08.106Z,9.17
2022-10-17T23:30:35.323Z,14.55
2022-10-17T23:33:02.195Z,10.88
2022-10-17T23:35:28.832Z,11.80
2022-10-17T23:37:55.383Z,9.98
2022-10-17T23:40:21.884Z,12.80
2022-10-17T23:42:48.291Z,16.80
2022-10-17T23:45:14.765Z,28.70
2022-10-17T23:47:41.928Z,23.83
2022-10-17T23:50:08.434Z,12.10
2022-10-17T23:52:34.847Z,8.67
2022-10-17T23:55:01.232Z,25.50
2022-10-17T23:57:27.856Z,15.75
2022-10-17T23:59:55.327Z,32.03
